Froelich, Iowa
Current Conditions -  °F | °C
As of 2:55 AM on Friday 31 Oct 2014 (Local Time) from KPDC Reporting Station
Broken Clouds Broken Clouds  
Wind Chill: 27°   Ceiling: 4800
Heat Index: 37°   Visibility: 10mi
Dew Point: 18°   Wind: 18mph
Humidity: 46%   Direction: 320°NW
Pressure: 30.23"   Gusts: 31mph
Location:  42.9505°N, 91.311°W
Report Text: KPDC 310755Z AUTO 32016G27KT 10SM SCT042 BKN048 BKN050 03/M08 A3023 RMK AO2 T00271079
Loading
Personal Weather Stations






























Interactive Weather Map
Tropical Storm Tracking
New forecast layout! Learn more

10-Day Weather Forecast

Advertisements
Track Severe Weather on mobile